createdAt,value
2023-05-21T00:05:01.958Z,77.0
2023-05-21T00:10:08.159Z,77.0
2023-05-21T00:15:14.380Z,77.0
2023-05-21T00:20:20.585Z,77.5
2023-05-21T00:25:26.811Z,77.5
2023-05-21T00:30:32.996Z,78.0
2023-05-21T00:35:39.206Z,78.5
2023-05-21T00:40:45.414Z,78.5
2023-05-21T00:45:50.668Z,79.0
2023-05-21T00:50:56.843Z,79.0
2023-05-21T00:56:03.070Z,79.5
2023-05-21T01:01:09.272Z,79.5
2023-05-21T01:06:15.464Z,80.0
2023-05-21T01:11:21.705Z,80.0
2023-05-21T01:16:27.976Z,80.0
2023-05-21T01:21:34.079Z,80.5
2023-05-21T01:26:40.295Z,80.5
2023-05-21T01:31:46.503Z,80.5
2023-05-21T01:36:52.703Z,81.0
2023-05-21T01:41:58.916Z,81.0
2023-05-21T01:47:05.133Z,81.0
2023-05-21T01:52:11.333Z,81.0
2023-05-21T01:57:17.551Z,81.0
2023-05-21T02:02:23.759Z,81.0
2023-05-21T02:07:29.972Z,81.0
2023-05-21T02:12:36.182Z,81.0
2023-05-21T02:17:42.554Z,81.0
2023-05-21T02:22:48.620Z,81.0
2023-05-21T02:27:54.790Z,81.0
2023-05-21T02:33:01.125Z,81.0
2023-05-21T02:38:07.211Z,81.0
2023-05-21T02:43:15.922Z,81.0
2023-05-21T02:48:19.625Z,81.0
2023-05-21T02:53:25.833Z,81.0
2023-05-21T02:58:32.037Z,81.0
2023-05-21T03:03:38.328Z,81.0
2023-05-21T03:08:44.458Z,81.5
2023-05-21T03:13:50.734Z,81.5
2023-05-21T03:18:56.919Z,82.0
2023-05-21T03:24:03.082Z,82.0
2023-05-21T03:29:09.286Z,82.0
2023-05-21T03:34:15.497Z,82.5
2023-05-21T03:39:21.712Z,82.5
2023-05-21T03:44:27.919Z,83.0
2023-05-21T03:49:34.121Z,83.0
2023-05-21T03:54:40.332Z,83.0
2023-05-21T03:59:46.537Z,83.0
2023-05-21T04:04:52.848Z,83.5
2023-05-21T04:09:58.954Z,83.5
2023-05-21T04:15:05.169Z,83.5
2023-05-21T04:20:11.401Z,84.0
2023-05-21T04:25:17.581Z,84.5
2023-05-21T04:30:23.804Z,84.5
2023-05-21T04:35:30.025Z,84.5
2023-05-21T04:40:36.727Z,85.0
2023-05-21T04:45:42.424Z,85.0
2023-05-21T04:50:48.633Z,85.0
2023-05-21T04:55:54.845Z,85.0
2023-05-21T05:01:01.067Z,85.0
2023-05-21T05:06:07.251Z,85.0
2023-05-21T05:11:13.472Z,85.5
2023-05-21T05:16:19.677Z,85.5
2023-05-21T05:21:25.885Z,85.5
2023-05-21T05:26:32.094Z,85.5
2023-05-21T05:31:38.306Z,85.5
2023-05-21T05:36:44.512Z,85.5
2023-05-21T05:41:50.719Z,85.5
2023-05-21T05:46:56.937Z,85.5
2023-05-21T05:52:03.130Z,85.5
2023-05-21T05:57:09.336Z,85.5
2023-05-21T06:02:15.560Z,85.5
2023-05-21T06:07:21.746Z,85.5
2023-05-21T06:12:27.962Z,85.0
2023-05-21T06:17:33.201Z,85.0
2023-05-21T06:22:39.407Z,85.0
2023-05-21T06:27:45.614Z,85.0
2023-05-21T06:32:51.921Z,84.5
2023-05-21T06:37:58.024Z,84.5
2023-05-21T06:43:04.230Z,84.5
2023-05-21T06:48:10.485Z,84.0
2023-05-21T06:53:16.642Z,84.0
2023-05-21T06:58:22.852Z,84.0
2023-05-21T07:03:29.188Z,83.5
2023-05-21T07:08:35.266Z,83.5
2023-05-21T07:13:41.479Z,83.5
2023-05-21T07:18:47.756Z,84.0
2023-05-21T07:23:53.892Z,84.0
2023-05-21T07:29:00.120Z,84.0
2023-05-21T07:34:06.354Z,84.5
2023-05-21T07:39:12.525Z,84.0
2023-05-21T07:44:18.733Z,83.0
2023-05-21T07:49:24.972Z,82.5
2023-05-21T07:54:31.156Z,83.0
2023-05-21T07:59:37.418Z,82.5
2023-05-21T08:04:43.604Z,81.0
2023-05-21T08:09:49.773Z,80.5
2023-05-21T08:14:55.989Z,80.0
2023-05-21T08:20:02.187Z,79.5
2023-05-21T08:25:08.406Z,79.5
2023-05-21T08:30:14.604Z,79.5
2023-05-21T08:35:20.831Z,79.5
2023-05-21T08:40:27.029Z,79.5
2023-05-21T08:45:33.250Z,79.5
2023-05-21T08:50:39.459Z,78.5
2023-05-21T08:55:45.651Z,78.5
2023-05-21T09:00:51.946Z,78.0
2023-05-21T09:05:58.067Z,78.0
2023-05-21T09:11:04.275Z,77.5
2023-05-21T09:16:10.536Z,76.5
2023-05-21T09:21:16.718Z,76.0
2023-05-21T09:26:22.902Z,75.5
2023-05-21T09:31:29.132Z,75.5
2023-05-21T09:36:35.333Z,75.5
2023-05-21T09:41:41.525Z,74.5
2023-05-21T09:46:47.787Z,74.5
2023-05-21T09:51:53.953Z,74.5
2023-05-21T09:57:00.168Z,74.5
2023-05-21T10:02:06.468Z,74.5
2023-05-21T10:07:12.583Z,74.5
2023-05-21T10:12:18.776Z,75.0
2023-05-21T10:17:24.997Z,75.0
2023-05-21T10:22:31.209Z,75.0
2023-05-21T10:27:37.418Z,75.0
2023-05-21T10:32:43.748Z,75.5
2023-05-21T10:37:49.822Z,75.5
2023-05-21T10:42:56.048Z,75.5
2023-05-21T10:48:02.300Z,75.0
2023-05-21T10:53:10.644Z,75.0
2023-05-21T10:58:14.662Z,74.5
2023-05-21T11:03:21.172Z,74.0
2023-05-21T11:08:27.088Z,74.0
2023-05-21T11:13:33.289Z,73.0
2023-05-21T11:18:39.505Z,73.0
2023-05-21T11:23:45.718Z,73.0
2023-05-21T11:28:51.917Z,73.0
2023-05-21T11:33:58.137Z,72.5
2023-05-21T11:39:04.341Z,72.5
2023-05-21T11:44:10.542Z,72.0
2023-05-21T11:49:15.783Z,71.5
2023-05-21T11:54:21.997Z,71.5
2023-05-21T11:59:28.216Z,71.5
2023-05-21T12:04:34.417Z,71.5
2023-05-21T12:09:40.622Z,70.5
2023-05-21T12:14:46.835Z,70.0
2023-05-21T12:19:52.074Z,70.0
2023-05-21T12:24:58.289Z,70.0
2023-05-21T12:30:04.495Z,70.5
2023-05-21T12:35:10.781Z,70.5
2023-05-21T12:40:16.944Z,70.5
2023-05-21T12:45:23.152Z,70.5
2023-05-21T12:50:29.364Z,70.0
2023-05-21T12:55:35.576Z,69.5
2023-05-21T13:00:41.797Z,69.5
2023-05-21T13:05:48.065Z,69.5
2023-05-21T13:10:54.232Z,69.5
2023-05-21T13:16:00.572Z,69.0
2023-05-21T13:21:06.666Z,68.5
2023-05-21T13:26:13.111Z,0.0
2023-05-21T13:31:19.321Z,68.5
2023-05-21T13:36:25.542Z,68.0
2023-05-21T13:41:31.756Z,67.5
2023-05-21T13:46:37.998Z,68.0
2023-05-21T13:51:44.201Z,68.0
2023-05-21T13:56:50.412Z,68.0
2023-05-21T14:01:56.695Z,68.0
2023-05-21T14:07:02.848Z,67.5
2023-05-21T14:12:09.068Z,67.5
2023-05-21T14:17:15.302Z,67.5
2023-05-21T14:22:21.521Z,66.5
2023-05-21T14:27:27.730Z,66.5
2023-05-21T14:32:33.961Z,66.0
2023-05-21T14:37:40.180Z,66.0
2023-05-21T14:42:46.400Z,67.0
2023-05-21T14:47:52.780Z,67.5
2023-05-21T14:52:58.828Z,66.5
2023-05-21T14:58:05.063Z,66.0
2023-05-21T15:03:11.321Z,66.0
2023-05-21T15:08:17.497Z,66.5
2023-05-21T15:13:23.707Z,66.0
2023-05-21T15:18:29.944Z,65.5
2023-05-21T15:23:36.162Z,66.0
2023-05-21T15:28:42.368Z,66.0
2023-05-21T15:33:48.589Z,65.5
2023-05-21T15:38:54.807Z,65.5
2023-05-21T15:44:01.026Z,65.5
2023-05-21T15:49:07.255Z,65.0
2023-05-21T15:54:13.470Z,64.5
2023-05-21T15:59:19.675Z,64.5
2023-05-21T16:04:25.899Z,64.5
2023-05-21T16:09:32.113Z,64.0
2023-05-21T16:14:38.326Z,64.0
2023-05-21T16:19:44.552Z,64.0
2023-05-21T16:24:50.780Z,64.0
2023-05-21T16:29:57.039Z,64.0
2023-05-21T16:35:03.201Z,64.5
2023-05-21T16:40:09.418Z,64.5
2023-05-21T16:45:15.648Z,64.5
2023-05-21T16:50:21.867Z,64.0
2023-05-21T16:55:28.077Z,64.0
2023-05-21T17:00:34.289Z,63.5
2023-05-21T17:05:40.516Z,63.5
2023-05-21T17:10:46.736Z,63.5
2023-05-21T17:15:52.974Z,63.5
2023-05-21T17:20:59.173Z,63.5
2023-05-21T17:26:05.383Z,63.5
2023-05-21T17:31:11.678Z,64.0
2023-05-21T17:36:17.848Z,64.0
2023-05-21T17:41:24.045Z,64.0
2023-05-21T17:46:30.279Z,64.0
2023-05-21T17:51:35.501Z,64.0
2023-05-21T17:56:42.491Z,64.5
2023-05-21T18:01:47.938Z,64.5
2023-05-21T18:06:54.162Z,64.5
2023-05-21T18:12:00.416Z,65.0
2023-05-21T18:17:06.721Z,65.5
2023-05-21T18:22:12.839Z,65.5
2023-05-21T18:27:19.039Z,66.0
2023-05-21T18:32:25.410Z,66.0
2023-05-21T18:37:31.471Z,66.5
2023-05-21T18:42:37.685Z,67.0
2023-05-21T18:47:43.938Z,67.0
2023-05-21T18:52:51.626Z,67.5
2023-05-21T18:57:56.337Z,68.0
2023-05-21T19:03:02.812Z,0.0
2023-05-21T19:08:09.009Z,68.5
2023-05-21T19:13:15.213Z,69.0
2023-05-21T19:18:21.430Z,69.0
2023-05-21T19:23:27.978Z,69.5
2023-05-21T19:28:33.866Z,70.0
2023-05-21T19:33:40.145Z,70.5
2023-05-21T19:38:46.280Z,70.5
2023-05-21T19:43:52.493Z,71.0
2023-05-21T19:48:58.784Z,71.5
2023-05-21T19:54:04.906Z,72.0
2023-05-21T19:59:11.120Z,72.5
2023-05-21T20:04:17.482Z,73.0
2023-05-21T20:09:23.539Z,73.5
2023-05-21T20:14:29.753Z,74.0
2023-05-21T20:19:36.149Z,74.5
2023-05-21T20:24:42.165Z,74.5
2023-05-21T20:29:48.386Z,75.0
2023-05-21T20:35:02.688Z,75.5
2023-05-21T20:40:00.791Z,76.0
2023-05-21T20:45:07.022Z,76.5
2023-05-21T20:55:19.432Z,77.5
2023-05-21T21:00:25.625Z,78.5
2023-05-21T21:05:31.833Z,79.0
2023-05-21T21:10:38.304Z,79.5
2023-05-21T21:15:44.317Z,80.0
2023-05-21T21:20:50.494Z,80.5
2023-05-21T21:25:56.672Z,81.0
2023-05-21T21:36:09.094Z,82.0
2023-05-21T21:41:15.301Z,83.0
2023-05-21T21:46:21.578Z,83.5
2023-05-21T21:51:27.728Z,84.5
2023-05-21T21:56:33.929Z,85.0
2023-05-21T22:01:40.173Z,85.5
2023-05-21T22:06:46.346Z,85.5
2023-05-21T22:11:52.552Z,86.0
2023-05-21T22:16:58.905Z,86.5
2023-05-21T22:22:04.960Z,87.0
2023-05-21T22:27:11.177Z,87.0
2023-05-21T22:32:17.385Z,87.5
2023-05-21T22:37:23.599Z,88.0
2023-05-21T22:42:29.819Z,88.5
2023-05-21T22:47:36.055Z,89.0
2023-05-21T22:52:42.221Z,89.5
2023-05-21T22:57:48.434Z,90.0
2023-05-21T23:02:55.022Z,90.5
2023-05-21T23:08:00.849Z,91.0
2023-05-21T23:13:07.065Z,91.0
2023-05-21T23:18:13.315Z,91.0
2023-05-21T23:23:18.498Z,91.5
2023-05-21T23:28:24.691Z,91.5
2023-05-21T23:33:30.897Z,91.5
2023-05-21T23:38:37.105Z,91.5
2023-05-21T23:43:43.318Z,92.0
2023-05-21T23:48:49.537Z,92.0
2023-05-21T23:53:55.734Z,92.0
2023-05-21T23:59:01.949Z,92.0
